Time;durP1;ratioP1;P1;durP2;ratioP2;P2;SDS_P1;SDS_P2;PMS_P1;PMS_P2;Temp;Humidity;BMP_temperature;BMP_pressure;BME280_temperature;BME280_humidity;BME280_pressure;Samples;Min_cycle;Max_cycle;Signal;HPM_P1;HPM_P2
2022/08/12 00:45:08;;;;;;;3.17;2.83;;;;;;;27.14;32.41;101590.91;5048777;28;20478;-66
2022/08/12 00:47:34;;;;;;;4.45;2.53;;;;;;;27.10;31.71;101587.78;5051489;28;20021;-66
2022/08/12 00:50:00;;;;;;;6.32;3.00;;;;;;;27.11;32.17;101588.59;5051470;28;20039;-66
2022/08/12 00:52:25;;;;;;;5.68;2.88;;;;;;;27.05;31.95;101584.00;5035075;28;20028;-66
2022/08/12 00:54:59;;;;;;;6.20;3.28;;;;;;;27.03;32.84;101583.34;5034887;28;20044;-66
2022/08/12 00:57:35;;;;;;;2.80;2.60;;;;;;;27.02;32.56;101590.78;5034830;28;20032;-66
2022/08/12 01:00:03;;;;;;;7.47;3.03;;;;;;;26.99;31.96;101599.47;5034855;28;20040;-67
2022/08/12 01:02:31;;;;;;;8.02;3.30;;;;;;;26.96;32.19;101593.56;5051471;28;20029;-66
2022/08/12 01:13:16;;;;;;;5.97;2.65;;;;;;;26.74;32.73;101590.22;5051854;28;20086;-66
2022/08/12 01:15:44;;;;;;;6.18;2.88;;;;;;;26.72;32.71;101588.75;5035617;28;20020;-66
2022/08/12 01:18:11;;;;;;;7.95;3.25;;;;;;;26.69;32.81;101590.00;5046213;28;20471;-66
2022/08/12 01:20:41;;;;;;;4.72;3.30;;;;;;;26.66;32.62;101589.63;5035044;28;20078;-67
2022/08/12 01:23:43;;;;;;;4.22;3.30;;;;;;;26.65;32.66;101599.75;5034864;28;20040;-66
2022/08/12 01:26:15;;;;;;;5.20;2.67;;;;;;;26.59;33.10;101603.38;5034584;28;20044;-66
2022/08/12 01:28:45;;;;;;;8.65;3.25;;;;;;;26.55;33.00;101599.34;5034797;28;20094;-66
2022/08/12 01:31:11;;;;;;;9.90;2.90;;;;;;;26.51;32.95;101601.69;5034804;28;20029;-65
2022/08/12 01:33:56;;;;;;;8.60;3.42;;;;;;;26.48;33.20;101598.53;5018226;28;20029;-66
2022/08/12 01:36:25;;;;;;;6.43;2.90;;;;;;;26.42;33.31;101597.47;5018306;28;20372;-66
2022/08/12 01:38:52;;;;;;;6.85;3.53;;;;;;;26.42;33.07;101593.88;5034625;28;20025;-67
2022/08/12 01:41:20;;;;;;;3.83;2.80;;;;;;;26.39;33.67;101610.78;5018354;28;20029;-67
2022/08/12 01:43:46;;;;;;;4.22;3.17;;;;;;;26.35;33.47;101604.06;5018093;28;20017;-67
2022/08/12 01:46:46;;;;;;;3.92;2.72;;;;;;;26.33;33.71;101601.50;5035528;28;20116;-67
2022/08/12 01:49:47;;;;;;;3.75;2.55;;;;;;;26.29;33.57;101605.75;5034168;28;20064;-67
2022/08/12 01:52:45;;;;;;;9.32;2.65;;;;;;;26.27;33.17;101594.13;5035586;28;20048;-67
2022/08/12 01:55:13;;;;;;;5.93;2.75;;;;;;;26.25;33.09;101598.13;5029957;28;20041;-67
2022/08/12 01:57:46;;;;;;;5.22;2.72;;;;;;;26.21;33.68;101594.13;5034418;28;20450;-66
2022/08/12 02:00:15;;;;;;;3.65;2.72;;;;;;;26.18;33.99;101594.56;5017670;28;20394;-67
2022/08/12 02:02:45;;;;;;;4.93;3.13;;;;;;;26.16;33.87;101593.94;5017631;28;20060;-67
2022/08/12 02:11:41;;;;;;;3.38;2.63;;;;;;;25.97;33.69;101579.97;5034464;28;20032;-67
2022/08/12 02:14:34;;;;;;;10.27;3.40;;;;;;;25.95;33.71;101590.31;5017461;28;20029;-67
2022/08/12 02:17:23;;;;;;;5.55;3.03;;;;;;;25.89;33.77;101591.16;5035149;28;20071;-67
2022/08/12 02:20:04;;;;;;;4.43;2.80;;;;;;;25.85;34.25;101587.13;5034066;28;20037;-67
2022/08/12 02:22:37;;;;;;;4.78;3.22;;;;;;;25.77;34.31;101592.81;5033797;28;20522;-67
2022/08/12 02:25:06;;;;;;;6.43;3.53;;;;;;;25.75;33.93;101592.19;5017213;28;20042;-67
2022/08/12 02:27:36;;;;;;;6.10;3.20;;;;;;;25.72;34.55;101587.13;5033865;28;20033;-67
2022/08/12 02:30:03;;;;;;;4.10;3.33;;;;;;;25.70;34.54;101594.75;5017067;28;20047;-67
2022/08/12 02:32:32;;;;;;;3.75;2.60;;;;;;;25.68;33.90;101585.03;5034710;28;20039;-67
2022/08/12 02:34:57;;;;;;;3.47;2.83;;;;;;;25.66;34.40;101579.72;5033558;28;20067;-66
2022/08/12 02:37:23;;;;;;;4.88;3.13;;;;;;;25.63;34.60;101582.06;5033531;28;20495;-67
2022/08/12 02:39:49;;;;;;;5.22;3.40;;;;;;;25.58;34.80;101588.16;5033416;28;20033;-67
2022/08/12 02:42:16;;;;;;;5.30;3.08;;;;;;;25.54;34.71;101583.31;5033766;28;20533;-66
2022/08/12 02:44:44;;;;;;;5.30;3.15;;;;;;;25.47;34.80;101577.81;5016887;28;20029;-66
2022/08/12 02:47:10;;;;;;;8.73;3.85;;;;;;;25.45;34.20;101582.63;5033248;28;20427;-66
2022/08/12 02:49:40;;;;;;;5.43;3.22;;;;;;;25.38;34.40;101579.00;5016696;28;20083;-67
2022/08/12 02:52:06;;;;;;;5.78;3.50;;;;;;;25.37;34.78;101577.34;5033241;28;20021;-66
2022/08/12 02:54:32;;;;;;;4.75;3.53;;;;;;;25.38;34.78;101579.00;5016715;28;20017;-66
2022/08/12 02:56:58;;;;;;;5.20;3.50;;;;;;;25.32;35.17;101580.69;5016630;28;20021;-67
2022/08/12 02:59:26;;;;;;;5.55;3.35;;;;;;;25.34;34.59;101584.09;5016691;28;20017;-66
2022/08/12 03:01:58;;;;;;;4.38;3.38;;;;;;;25.30;34.93;101579.22;5032933;28;20499;-67
2022/08/12 03:04:26;;;;;;;4.93;3.70;;;;;;;25.27;34.63;101582.34;5016510;28;20390;-66
2022/08/12 03:07:17;;;;;;;8.45;3.97;;;;;;;25.27;34.69;101588.69;5034165;28;20483;-67
2022/08/12 03:10:04;;;;;;;7.97;3.60;;;;;;;25.21;35.10;101586.78;5033830;28;20041;-67
2022/08/12 03:12:35;;;;;;;5.07;3.63;;;;;;;25.16;34.93;101575.59;5032716;28;20038;-66
2022/08/12 03:15:05;;;;;;;3.90;3.47;;;;;;;25.09;35.48;101572.00;5031125;28;20029;-67
2022/08/12 03:17:42;;;;;;;4.38;3.40;;;;;;;25.09;35.00;101579.38;5031405;28;20024;-67
2022/08/12 03:20:09;;;;;;;5.72;3.60;;;;;;;25.07;35.21;101570.50;5052755;28;20032;-67
2022/08/12 03:22:39;;;;;;;6.63;3.53;;;;;;;25.05;35.89;101570.69;5033170;28;20390;-66
2022/08/12 03:25:05;;;;;;;6.28;3.97;;;;;;;25.01;35.11;101566.69;5033815;28;20049;-66
2022/08/12 03:27:33;;;;;;;5.85;3.88;;;;;;;24.97;35.38;101570.03;5035897;28;20040;-66
2022/08/12 03:29:59;;;;;;;3.92;3.47;;;;;;;24.95;35.91;101572.13;5053679;28;20078;-66
2022/08/12 03:32:25;;;;;;;3.75;3.22;;;;;;;24.92;35.59;101573.41;5052499;28;20029;-66
2022/08/12 03:34:51;;;;;;;5.93;3.92;;;;;;;24.89;36.29;101568.31;5052513;28;20033;-66
2022/08/12 03:37:19;;;;;;;5.88;3.45;;;;;;;24.88;35.92;101569.34;5035675;28;20128;-66
2022/08/12 03:39:45;;;;;;;4.53;4.03;;;;;;;24.84;36.28;101566.22;5032452;28;20083;-67
2022/08/12 04:01:57;;;;;;;7.55;3.97;;;;;;;24.62;36.42;101575.53;5051351;28;20090;-66
2022/08/12 04:04:33;;;;;;;4.47;3.40;;;;;;;24.59;36.33;101572.38;5051051;28;20025;-66
2022/08/12 04:07:06;;;;;;;7.05;3.35;;;;;;;24.56;36.49;101578.25;5034904;28;20029;-66
2022/08/12 04:09:32;;;;;;;8.40;4.18;;;;;;;24.54;35.52;101572.13;5034639;28;20059;-67
2022/08/12 04:14:42;;;;;;;16.38;4.63;;;;;;;24.45;36.46;101559.63;5036955;28;20556;-66
2022/08/12 04:17:08;;;;;;;6.72;4.43;;;;;;;24.44;36.14;101563.41;5034454;28;20056;-66
2022/08/12 04:19:33;;;;;;;4.95;3.67;;;;;;;24.37;35.94;101568.88;5031952;28;20403;-66
2022/08/12 04:22:00;;;;;;;7.70;3.60;;;;;;;24.44;36.68;101577.13;5033306;28;20127;-67
2022/08/12 04:24:26;;;;;;;8.50;3.85;;;;;;;24.41;36.63;101581.09;5031864;28;20023;-66
2022/08/12 04:26:52;;;;;;;5.75;4.00;;;;;;;24.41;36.19;101583.00;5044177;28;20411;-66
2022/08/12 04:29:21;;;;;;;11.63;3.85;;;;;;;24.40;36.72;101576.66;5031872;28;20026;-66
2022/08/12 04:31:48;;;;;;;6.88;3.67;;;;;;;24.40;36.01;101573.91;5032014;28;20026;-66
2022/08/12 04:34:14;;;;;;;6.05;4.80;;;;;;;24.38;36.87;101581.50;5031949;28;20075;-66
2022/08/12 04:36:40;;;;;;;9.43;5.10;;;;;;;24.34;36.49;101580.22;5048363;28;20100;-67
2022/08/12 04:39:08;;;;;;;7.18;4.88;;;;;;;24.33;36.36;101590.34;5031970;28;20063;-66
2022/08/12 04:41:37;;;;;;;6.53;4.75;;;;;;;24.32;36.40;101579.56;5015365;28;20104;-66
2022/08/12 04:44:06;;;;;;;6.78;4.10;;;;;;;24.33;36.46;101575.78;5032718;28;20156;-66
2022/08/12 04:46:32;;;;;;;40.78;5.68;;;;;;;24.33;37.35;101573.06;5052818;28;20029;-67
2022/08/12 04:48:59;;;;;;;6.82;3.78;;;;;;;24.31;36.84;101577.88;5051167;28;20040;-66
2022/08/12 04:51:24;;;;;;;14.93;3.92;;;;;;;24.33;36.45;101581.25;5017326;28;20025;-66
2022/08/12 04:53:50;;;;;;;19.40;4.75;;;;;;;24.38;36.75;101584.25;5043843;28;20025;-65
2022/08/12 04:56:16;;;;;;;6.68;4.68;;;;;;;24.43;37.04;101572.69;5055455;28;20039;-65
2022/08/12 04:58:41;;;;;;;4.97;4.47;;;;;;;24.50;36.58;101579.91;5056640;28;20029;-65
2022/08/12 05:01:07;;;;;;;8.63;4.93;;;;;;;24.62;37.33;101585.66;5043222;28;20100;-67
2022/08/12 05:03:36;;;;;;;8.30;4.38;;;;;;;24.70;37.13;101578.13;5035411;28;20112;-65
2022/08/12 05:06:03;;;;;;;9.55;4.57;;;;;;;24.85;36.91;101584.31;5019256;28;20079;-66
2022/08/12 05:08:29;;;;;;;6.13;4.50;;;;;;;24.96;36.99;101580.16;5036341;28;20108;-65
2022/08/12 05:10:55;;;;;;;5.18;4.07;;;;;;;25.10;36.42;101589.28;5018696;28;20025;-65
2022/08/12 05:13:23;;;;;;;9.23;4.47;;;;;;;25.19;36.82;101585.28;5053137;28;20060;-65
2022/08/12 05:15:49;;;;;;;5.22;4.40;;;;;;;25.33;36.52;101585.13;5055183;28;20016;-65
2022/08/12 05:18:14;;;;;;;5.55;4.20;;;;;;;25.48;36.79;101585.00;5038419;28;20029;-66
2022/08/12 05:20:43;;;;;;;5.90;4.70;;;;;;;25.61;37.05;101581.41;5054769;28;20029;-66
2022/08/12 05:23:10;;;;;;;8.32;4.53;;;;;;;25.73;36.95;101577.84;5038904;28;20033;-64
2022/08/12 05:25:36;;;;;;;6.75;5.20;;;;;;;25.88;36.44;101583.97;5038056;28;20402;-66
2022/08/12 05:28:04;;;;;;;11.07;4.80;;;;;;;26.01;36.30;101581.25;5054635;28;20024;-65
2022/08/12 05:30:32;;;;;;;12.45;5.05;;;;;;;26.19;36.29;101583.34;5038322;28;20059;-65
2022/08/12 05:32:58;;;;;;;7.68;4.63;;;;;;;26.36;36.19;101586.50;5038242;28;20029;-65
2022/08/12 05:35:23;;;;;;;8.80;4.97;;;;;;;26.55;35.77;101583.69;5037908;28;20467;-65
2022/08/12 05:38:54;;;;;;;8.77;4.97;;;;;;;26.72;35.66;101589.56;5036610;28;20028;-66
2022/08/12 05:40:34;;;;;;;7.85;4.18;;;;;;;26.88;35.39;101591.91;5034897;28;20028;-63
2022/08/12 05:43:00;;;;;;;8.45;4.18;;;;;;;27.07;35.46;101595.63;5018224;28;20037;-61
2022/08/12 05:45:25;;;;;;;6.30;4.15;;;;;;;27.24;34.86;101598.72;5034721;28;20040;-61
2022/08/12 05:47:50;;;;;;;8.40;4.47;;;;;;;27.42;34.95;101596.94;5034375;28;20116;-62
2022/08/12 05:50:16;;;;;;;8.38;4.32;;;;;;;27.62;34.35;101596.81;5034561;28;20487;-61
2022/08/12 05:52:41;;;;;;;11.18;4.13;;;;;;;27.84;33.81;101591.75;5035664;28;20051;-65
2022/08/12 05:55:07;;;;;;;6.85;3.97;;;;;;;28.03;33.58;101588.06;5034471;28;20022;-66
2022/08/12 05:57:32;;;;;;;7.95;3.85;;;;;;;28.22;34.18;101582.38;5034423;28;20040;-66
2022/08/12 05:59:58;;;;;;;15.65;4.63;;;;;;;28.46;33.89;101579.78;5034070;28;20028;-65
2022/08/12 06:02:25;;;;;;;5.95;4.13;;;;;;;28.66;34.03;101585.94;5033117;28;20033;-66
2022/08/12 06:04:50;;;;;;;12.85;4.03;;;;;;;28.85;33.25;101584.88;5046236;28;20457;-66
2022/08/12 06:07:15;;;;;;;22.25;4.40;;;;;;;29.07;33.01;101597.13;5037269;28;20035;-67
2022/08/12 06:09:41;;;;;;;11.05;3.95;;;;;;;29.25;33.10;101594.38;5048410;28;20029;-66
2022/08/12 06:12:06;;;;;;;10.75;4.60;;;;;;;29.44;32.52;101598.75;5017492;28;20068;-67
2022/08/12 06:14:36;;;;;;;20.02;4.80;;;;;;;29.62;32.51;101597.84;5033977;28;20479;-67
2022/08/12 06:17:02;;;;;;;6.65;4.07;;;;;;;29.82;32.23;101597.56;5038373;28;20052;-66
2022/08/12 06:19:28;;;;;;;10.80;4.30;;;;;;;29.94;32.17;101598.44;5037284;28;20075;-67
2022/08/12 06:21:53;;;;;;;8.48;3.90;;;;;;;30.07;31.60;101587.16;5053512;28;20036;-66
2022/08/12 06:24:23;;;;;;;7.45;4.00;;;;;;;30.19;31.62;101585.25;5046898;28;20029;-66
2022/08/12 06:26:49;;;;;;;11.43;4.10;;;;;;;30.33;31.77;101583.06;5033517;28;20104;-67
2022/08/12 06:29:18;;;;;;;7.53;3.50;;;;;;;30.47;31.68;101582.63;5033559;28;20025;-66
2022/08/12 06:31:45;;;;;;;12.23;3.47;;;;;;;30.67;31.57;101586.91;5017499;28;20029;-66
2022/08/12 06:34:13;;;;;;;7.28;3.22;;;;;;;30.83;31.13;101592.53;5033643;28;20067;-66
2022/08/12 06:36:39;;;;;;;8.45;3.55;;;;;;;31.01;30.72;101592.41;5044140;28;20422;-66
2022/08/12 06:39:04;;;;;;;8.57;3.20;;;;;;;31.16;31.04;101580.78;5053343;28;20021;-66
2022/08/12 06:44:19;;;;;;;4.93;2.80;;;;;;;31.52;30.61;101585.94;5054422;28;20031;-67
2022/08/12 06:46:45;;;;;;;9.38;3.50;;;;;;;31.72;30.23;101579.94;5037214;28;20490;-66
2022/08/12 06:49:12;;;;;;;3.88;2.50;;;;;;;31.92;30.53;101582.22;5053025;28;20025;-66
2022/08/12 06:51:38;;;;;;;12.63;3.17;;;;;;;32.12;30.16;101571.50;5053214;28;20033;-66
2022/08/12 06:54:03;;;;;;;6.85;2.70;;;;;;;32.30;29.59;101587.88;5020035;28;20025;-66
2022/08/12 06:56:29;;;;;;;5.75;2.42;;;;;;;32.45;29.58;101579.75;5036369;28;20032;-66
2022/08/12 06:58:56;;;;;;;8.85;2.97;;;;;;;32.62;29.28;101583.38;5052987;28;20099;-66
2022/08/12 07:01:24;;;;;;;4.82;2.45;;;;;;;32.79;29.37;101581.38;5036482;28;20028;-67
2022/08/12 07:03:51;;;;;;;3.50;2.28;;;;;;;32.93;29.04;101579.06;5033544;28;20434;-66
2022/08/12 07:06:17;;;;;;;13.50;3.25;;;;;;;33.09;28.59;101580.94;5032973;28;20017;-66
2022/08/12 07:08:42;;;;;;;10.45;2.67;;;;;;;33.29;28.92;101583.94;5032817;28;20047;-66
2022/08/12 07:11:10;;;;;;;9.57;2.30;;;;;;;33.50;29.25;101586.94;5034008;28;20135;-66
2022/08/12 07:13:42;;;;;;;8.32;2.55;;;;;;;33.67;27.79;101580.19;5015991;28;20053;-66
2022/08/12 07:16:18;;;;;;;3.57;2.17;;;;;;;33.85;28.39;101582.59;5032364;28;20064;-66
2022/08/12 07:18:46;;;;;;;4.45;2.30;;;;;;;34.02;28.23;101576.03;5032286;28;20617;-67
2022/08/12 07:21:13;;;;;;;4.55;2.45;;;;;;;34.25;27.99;101586.81;5032636;28;20048;-67
2022/08/12 07:23:40;;;;;;;4.97;2.15;;;;;;;34.41;27.64;101583.88;5033679;28;20043;-66
2022/08/12 07:26:07;;;;;;;5.22;1.80;;;;;;;34.59;27.86;101584.56;5035715;28;20088;-67
2022/08/12 07:28:35;;;;;;;4.53;2.22;;;;;;;34.79;27.09;101591.06;5053608;28;20029;-66
2022/08/12 07:31:07;;;;;;;4.25;1.77;;;;;;;34.98;27.09;101592.25;5048201;28;20036;-66
2022/08/12 07:33:38;;;;;;;2.28;2.10;;;;;;;35.15;26.89;101588.47;5032521;28;20029;-66
2022/08/12 07:36:05;;;;;;;4.88;2.33;;;;;;;35.35;26.68;101592.13;5032438;28;20017;-66
2022/08/12 07:38:46;;;;;;;6.30;1.80;;;;;;;35.56;26.10;101595.84;5032726;28;20028;-66
2022/08/12 07:41:16;;;;;;;6.53;2.75;;;;;;;35.72;25.29;101600.31;5032559;28;20029;-66
2022/08/12 07:43:47;;;;;;;2.53;1.90;;;;;;;35.81;25.03;101595.84;5015973;28;20027;-68
2022/08/12 07:46:15;;;;;;;7.45;3.17;;;;;;;35.92;25.14;101578.00;5050433;28;20016;-67
2022/08/12 07:48:50;;;;;;;9.25;2.28;;;;;;;36.07;24.97;101574.41;5035356;28;20025;-67
2022/08/12 07:51:17;;;;;;;7.30;1.92;;;;;;;36.25;25.31;101579.38;5052338;28;20032;-67
2022/08/12 07:53:42;;;;;;;8.40;2.30;;;;;;;36.39;25.39;101583.28;5052054;28;20036;-67
2022/08/12 07:56:09;;;;;;;4.03;2.35;;;;;;;36.49;24.96;101576.84;5035528;28;20480;-67
2022/08/12 07:58:38;;;;;;;3.97;2.10;;;;;;;36.59;25.10;101571.25;5035386;28;20124;-67
2022/08/12 08:01:05;;;;;;;11.82;2.40;;;;;;;36.70;24.63;101572.88;5035797;28;20491;-67
2022/08/12 08:03:30;;;;;;;4.20;1.95;;;;;;;36.85;24.25;101589.59;5052499;28;20059;-66
2022/08/12 08:05:57;;;;;;;4.93;2.45;;;;;;;36.93;24.31;101577.81;5019018;28;20037;-67
2022/08/12 08:08:26;;;;;;;7.75;2.13;;;;;;;37.08;24.40;101586.16;5051990;28;20021;-67
2022/08/12 08:12:52;;;;;;;9.90;2.05;;;;;;;37.26;24.48;101588.31;5051916;28;20501;-67
2022/08/12 08:13:44;;;;;;;6.35;2.05;;;;;;;37.41;23.77;101592.13;5051913;28;20103;-66
2022/08/12 08:16:09;;;;;;;3.22;1.75;;;;;;;37.50;23.93;101582.00;5035584;28;20079;-67
2022/08/12 08:18:35;;;;;;;3.83;1.95;;;;;;;37.67;23.44;101591.69;5048795;28;20391;-66
2022/08/12 08:21:02;;;;;;;5.85;1.70;;;;;;;37.84;23.74;101594.06;5015453;28;20491;-67
2022/08/12 08:24:13;;;;;;;2.88;1.88;;;;;;;37.99;22.98;101577.19;4999170;28;20529;-67
2022/08/12 08:26:14;;;;;;;2.28;1.75;;;;;;;38.18;23.51;101589.31;5033869;28;20049;-67
2022/08/12 08:28:40;;;;;;;5.70;1.73;;;;;;;38.31;22.68;101591.41;5036042;28;20044;-67
2022/08/12 08:31:06;;;;;;;5.97;1.60;;;;;;;38.43;23.16;101586.28;5019210;28;20104;-67
2022/08/12 08:33:31;;;;;;;2.33;1.52;;;;;;;38.57;22.59;101585.56;5034477;28;20031;-66
2022/08/12 08:35:58;;;;;;;1.30;1.23;;;;;;;38.65;22.08;101598.91;5040768;28;20026;-67
2022/08/12 08:38:23;;;;;;;5.20;2.00;;;;;;;38.68;21.80;101592.72;5035931;28;20480;-67
2022/08/12 08:43:32;;;;;;;4.32;1.48;;;;;;;38.81;21.82;101598.47;5036949;28;20511;-67
2022/08/12 08:46:00;;;;;;;6.38;1.33;;;;;;;38.90;21.98;101590.22;5019281;28;20030;-67
2022/08/12 08:48:29;;;;;;;2.63;1.90;;;;;;;38.99;21.64;101588.44;5035662;28;20037;-67
2022/08/12 08:50:55;;;;;;;4.68;1.40;;;;;;;39.11;21.51;101597.25;5027041;28;20032;-67
2022/08/12 08:53:20;;;;;;;3.08;1.70;;;;;;;39.24;21.77;101590.94;5038792;28;20379;-67
2022/08/12 08:55:48;;;;;;;1.50;1.30;;;;;;;39.35;21.32;101598.06;5055575;28;20053;-67
2022/08/12 08:58:13;;;;;;;5.40;1.50;;;;;;;39.46;20.73;101591.16;5039025;28;20508;-67
2022/08/12 09:00:39;;;;;;;1.83;1.40;;;;;;;39.57;21.33;101595.47;5055380;28;20021;-66
2022/08/12 09:03:05;;;;;;;6.22;2.10;;;;;;;39.71;20.94;101589.09;5038774;28;20546;-66
2022/08/12 09:05:31;;;;;;;5.00;1.67;;;;;;;39.92;21.30;101590.47;5055336;28;20414;-67
2022/08/12 09:08:02;;;;;;;3.65;1.40;;;;;;;40.06;20.97;101596.94;5036113;28;20028;-66
2022/08/12 09:10:28;;;;;;;4.03;1.75;;;;;;;40.19;20.63;101596.16;5036555;28;20493;-66
2022/08/12 09:15:38;;;;;;;2.67;1.52;;;;;;;40.35;20.33;101582.66;5036328;28;20410;-66
2022/08/12 09:18:05;;;;;;;3.35;1.35;;;;;;;40.44;20.67;101583.63;5035020;28;20025;-66
2022/08/12 09:20:33;;;;;;;4.63;1.30;;;;;;;40.51;20.92;101582.09;5018610;28;20036;-66
2022/08/12 09:23:04;;;;;;;5.38;1.65;;;;;;;40.50;20.13;101574.81;5053498;28;20498;-66
2022/08/12 09:25:30;;;;;;;2.38;1.27;;;;;;;40.60;20.13;101573.75;5038238;28;20498;-67
2022/08/12 09:27:57;;;;;;;5.18;1.42;;;;;;;40.66;20.22;101575.31;5054886;28;20036;-67
2022/08/12 09:30:23;;;;;;;1.90;1.15;;;;;;;40.75;20.01;101575.44;5036862;28;20025;-67
2022/08/12 09:32:52;;;;;;;7.18;2.08;;;;;;;40.88;20.34;101580.19;5036836;28;20028;-67
2022/08/12 09:35:19;;;;;;;1.25;1.17;;;;;;;40.97;20.11;101572.72;5053554;28;20025;-67
2022/08/12 09:37:50;;;;;;;3.13;1.40;;;;;;;41.07;19.42;101578.97;5036626;28;20032;-66
2022/08/12 09:40:17;;;;;;;2.20;1.10;;;;;;;41.18;20.00;101562.72;5053461;28;20029;-67
2022/08/12 09:45:29;;;;;;;2.92;1.17;;;;;;;41.44;19.68;101566.59;5047946;28;20402;-66
2022/08/12 09:47:54;;;;;;;4.55;1.20;;;;;;;41.51;19.14;101564.19;5034254;28;20037;-67
2022/08/12 09:50:21;;;;;;;1.13;1.00;;;;;;;41.62;19.40;101559.97;5016725;28;20491;-66
2022/08/12 09:52:51;;;;;;;5.82;1.40;;;;;;;41.73;18.99;101552.97;5033206;28;20030;-67
2022/08/12 09:55:17;;;;;;;5.75;1.40;;;;;;;41.93;18.91;101559.22;5020359;28;20082;-67
2022/08/12 09:57:42;;;;;;;1.58;1.30;;;;;;;42.19;19.28;101557.38;5053128;28;20418;-67
2022/08/12 10:00:10;;;;;;;3.05;1.48;;;;;;;42.61;18.60;101564.41;5054277;28;20036;-67
2022/08/12 10:02:37;;;;;;;8.13;3.15;;;;;;;43.11;17.87;101550.81;5054248;28;20028;-66
2022/08/12 10:05:04;;;;;;;3.95;2.00;;;;;;;43.83;17.59;101560.31;5020135;28;20429;-67
2022/08/12 10:07:29;;;;;;;5.15;1.35;;;;;;;44.95;17.14;101554.25;5036249;28;20056;-67
2022/08/12 10:09:55;;;;;;;1.10;1.00;;;;;;;46.15;16.38;101556.03;5048411;28;20460;-68
2022/08/12 10:15:05;;;;;;;1.90;1.08;;;;;;;45.39;16.75;101544.28;5034106;28;20028;-67
2022/08/12 10:17:30;;;;;;;1.02;0.90;;;;;;;45.06;16.88;101538.53;5016471;28;20482;-67
2022/08/12 10:19:55;;;;;;;2.35;0.95;;;;;;;44.86;17.01;101533.63;5034118;28;20040;-67
2022/08/12 10:22:21;;;;;;;2.53;1.50;;;;;;;44.67;16.67;101547.41;5032870;28;20029;-67
2022/08/12 10:29:35;;;;;;;1.33;0.93;;;;;;;44.56;16.58;101533.63;5000635;28;1133519;-66
2022/08/12 10:30:19;;;;;;;3.35;1.08;;;;;;;44.69;16.71;101517.59;5036038;28;20044;-67
2022/08/12 10:32:58;;;;;;;3.60;0.90;;;;;;;44.80;16.17;101515.19;5034807;28;20033;-66
2022/08/12 10:35:30;;;;;;;1.40;0.93;;;;;;;44.90;16.43;101521.31;5017444;28;20483;-67
2022/08/12 10:37:57;;;;;;;2.15;1.17;;;;;;;45.03;16.22;101514.56;5017788;28;20029;-67
2022/08/12 10:40:22;;;;;;;4.35;1.20;;;;;;;45.21;16.13;101518.06;5016893;28;20052;-67
2022/08/12 10:45:31;;;;;;;4.97;1.52;;;;;;;45.50;15.97;101506.69;5033532;28;20041;-67
2022/08/12 10:47:57;;;;;;;1.60;1.17;;;;;;;45.69;15.96;101509.00;5016041;28;20045;-67
2022/08/12 10:50:23;;;;;;;3.17;1.23;;;;;;;45.91;15.88;101507.75;5000256;28;20116;-67
2022/08/12 10:52:48;;;;;;;1.75;1.20;;;;;;;45.99;15.87;101512.50;5016873;28;20025;-67
2022/08/12 10:55:14;;;;;;;2.83;1.38;;;;;;;46.08;15.51;101505.59;5034351;28;20479;-67
2022/08/12 10:57:40;;;;;;;6.18;2.05;;;;;;;46.13;15.35;101502.50;5016762;28;20032;-67
2022/08/12 11:00:06;;;;;;;5.45;1.08;;;;;;;46.23;15.86;101510.56;5032987;28;20029;-67
2022/08/12 11:02:31;;;;;;;2.22;1.40;;;;;;;46.28;15.54;101503.81;5016994;28;20029;-67
2022/08/12 11:04:58;;;;;;;2.65;1.02;;;;;;;46.32;15.56;101498.28;5033031;28;20036;-68
2022/08/12 11:07:24;;;;;;;4.70;1.52;;;;;;;46.44;15.26;101492.63;5032917;28;20040;-68
2022/08/12 11:09:49;;;;;;;4.63;1.40;;;;;;;46.61;15.47;101498.03;5032877;28;20030;-67
2022/08/12 11:12:16;;;;;;;4.55;1.73;;;;;;;46.69;15.52;101502.75;5016370;28;20083;-67
2022/08/12 11:14:42;;;;;;;1.50;1.40;;;;;;;46.70;15.25;101482.56;5032776;28;20368;-67
2022/08/12 11:17:12;;;;;;;2.28;1.20;;;;;;;46.74;15.29;101499.66;5033902;28;20032;-67
2022/08/12 11:19:40;;;;;;;3.35;1.55;;;;;;;46.78;15.21;101489.31;5032808;28;20022;-67
2022/08/12 11:22:06;;;;;;;4.68;1.23;;;;;;;46.81;14.81;101482.91;5032623;28;20033;-67
2022/08/12 11:24:32;;;;;;;6.68;1.45;;;;;;;46.87;15.05;101480.66;5033640;28;20041;-67
2022/08/12 11:26:59;;;;;;;5.07;1.40;;;;;;;46.84;15.11;101470.84;5016076;28;20079;-67
2022/08/12 11:29:26;;;;;;;1.40;1.30;;;;;;;46.84;14.88;101476.53;5016145;28;20114;-68
2022/08/12 11:31:52;;;;;;;9.23;1.50;;;;;;;46.76;14.95;101464.13;5015995;28;20017;-68
2022/08/12 11:34:18;;;;;;;2.22;1.10;;;;;;;46.73;14.89;101464.00;5032839;28;20013;-68
2022/08/12 11:36:52;;;;;;;4.35;1.20;;;;;;;46.76;14.79;101469.81;5032479;28;20025;-68
2022/08/12 11:39:18;;;;;;;1.23;1.10;;;;;;;46.76;14.76;101466.16;5032416;28;20030;-68
2022/08/12 11:41:43;;;;;;;2.03;1.33;;;;;;;46.73;14.76;101458.31;5032313;28;20040;-68
2022/08/12 11:44:09;;;;;;;2.22;1.20;;;;;;;46.79;14.72;101456.91;5032435;28;20364;-68
2022/08/12 11:46:35;;;;;;;3.85;1.10;;;;;;;46.87;14.98;101453.09;5032258;28;20029;-68
2022/08/12 11:49:01;;;;;;;2.03;1.60;;;;;;;46.98;14.51;101448.56;5033377;28;20033;-68
2022/08/12 11:51:26;;;;;;;2.35;1.20;;;;;;;47.13;14.82;101442.13;5015726;28;20399;-67
2022/08/12 11:53:52;;;;;;;2.30;1.30;;;;;;;47.23;14.65;101438.81;5032215;28;20033;-67
2022/08/12 11:56:17;;;;;;;1.25;1.15;;;;;;;47.30;14.62;101447.50;5032331;28;20035;-67
2022/08/12 11:58:43;;;;;;;1.60;1.50;;;;;;;47.29;14.33;101443.03;4999258;28;20057;-68
2022/08/12 12:01:08;;;;;;;4.03;1.30;;;;;;;47.24;14.13;101451.78;4999251;28;20454;-67
2022/08/12 12:03:34;;;;;;;1.80;1.50;;;;;;;47.26;14.23;101443.75;5032105;28;20026;-67
2022/08/12 12:05:59;;;;;;;2.85;1.10;;;;;;;47.33;14.42;101437.44;5032091;28;20036;-67
2022/08/12 12:08:26;;;;;;;3.60;1.83;;;;;;;47.44;14.49;101446.28;5015557;28;20033;-68
2022/08/12 12:10:52;;;;;;;1.98;1.40;;;;;;;47.49;14.42;101435.50;5032201;28;20087;-67
2022/08/12 12:13:18;;;;;;;2.08;1.23;;;;;;;47.48;14.52;101450.06;5032243;28;20453;-68
2022/08/12 12:15:44;;;;;;;3.03;0.90;;;;;;;47.42;14.43;101440.09;5015614;28;20049;-67
2022/08/12 12:18:20;;;;;;;2.92;1.38;;;;;;;47.36;14.26;101431.03;5015698;28;20091;-67
2022/08/12 12:20:46;;;;;;;1.80;1.20;;;;;;;47.34;13.96;101434.25;5015960;28;20390;-66
2022/08/12 12:23:11;;;;;;;3.38;1.30;;;;;;;47.33;14.38;101426.06;5031970;28;20033;-67
2022/08/12 12:25:36;;;;;;;1.38;1.27;;;;;;;47.42;14.23;101423.06;5015303;28;20064;-67
2022/08/12 12:28:04;;;;;;;2.00;1.40;;;;;;;47.49;14.29;101423.31;5031907;28;20117;-67
2022/08/12 12:30:30;;;;;;;1.50;1.10;;;;;;;47.53;14.09;101424.22;5033124;28;20073;-68
2022/08/12 12:32:56;;;;;;;4.95;1.38;;;;;;;47.55;14.30;101421.84;5033233;28;20025;-67
2022/08/12 12:35:22;;;;;;;1.30;1.20;;;;;;;47.42;13.81;101418.22;5033129;28;20495;-67
2022/08/12 12:37:55;;;;;;;4.25;1.27;;;;;;;47.31;14.15;101423.63;5031823;28;20128;-67
2022/08/12 12:40:21;;;;;;;2.45;1.42;;;;;;;47.25;14.04;101413.69;5015346;28;20022;-67
2022/08/12 12:42:47;;;;;;;1.63;1.30;;;;;;;47.26;14.34;101415.34;5032020;28;20036;-67
2022/08/12 12:45:12;;;;;;;2.28;1.10;;;;;;;47.25;13.96;101402.34;5015293;28;20399;-67
2022/08/12 12:47:53;;;;;;;2.90;1.17;;;;;;;47.17;14.12;101396.81;5031628;28;20025;-67
2022/08/12 12:50:19;;;;;;;5.50;1.77;;;;;;;47.18;14.53;101398.47;5031587;28;20509;-67
2022/08/12 12:52:44;;;;;;;3.30;1.30;;;;;;;47.09;14.62;101392.94;5015446;28;20049;-67
2022/08/12 12:55:09;;;;;;;4.20;1.00;;;;;;;46.95;14.27;101386.00;5015300;28;20112;-66
2022/08/12 12:57:39;;;;;;;1.65;1.23;;;;;;;46.88;14.44;101380.94;5031622;28;20475;-67
2022/08/12 13:00:15;;;;;;;2.10;1.42;;;;;;;46.88;14.41;101375.28;5031693;28;20033;-67
2022/08/12 13:02:51;;;;;;;4.07;1.38;;;;;;;46.91;14.22;101374.56;5016407;28;20033;-67
2022/08/12 13:05:24;;;;;;;1.88;0.73;;;;;;;46.97;14.14;101367.44;5031690;28;20025;-67
2022/08/12 13:07:50;;;;;;;5.13;1.50;;;;;;;47.04;14.12;101353.47;5031684;28;20108;-67
2022/08/12 13:10:16;;;;;;;3.72;1.50;;;;;;;47.13;14.52;101371.16;5032855;28;20113;-67